createdAt,value
2018-05-08T00:02:26.791Z,98015.47
2018-05-08T00:04:54.237Z,98015.91
2018-05-08T00:07:21.666Z,98015.84
2018-05-08T00:09:49.130Z,98017.50
2018-05-08T00:12:16.597Z,98013.33
2018-05-08T00:14:44.061Z,98015.18
2018-05-08T00:17:11.507Z,98018.13
2018-05-08T00:19:38.968Z,98015.65
2018-05-08T00:22:06.434Z,98010.45
2018-05-08T00:24:33.913Z,98010.13
2018-05-08T00:27:01.447Z,98014.34
2018-05-08T00:29:28.876Z,98014.32
2018-05-08T00:31:56.355Z,98016.87
2018-05-08T00:34:23.792Z,98011.09
2018-05-08T00:36:51.234Z,98007.72
2018-05-08T00:39:18.811Z,98005.77
2018-05-08T00:41:46.266Z,97998.99
2018-05-08T00:44:13.747Z,98002.25
2018-05-08T00:46:41.202Z,98005.45
2018-05-08T00:49:08.672Z,98003.67
2018-05-08T00:51:36.122Z,98002.09
2018-05-08T00:54:03.567Z,98000.77
2018-05-08T00:56:30.995Z,97993.98
2018-05-08T00:58:58.493Z,97995.36
2018-05-08T01:01:25.946Z,97993.42
2018-05-08T01:03:53.392Z,97992.70
2018-05-08T01:06:20.878Z,97988.38
2018-05-08T01:08:48.323Z,98002.17
2018-05-08T01:11:15.771Z,98002.41
2018-05-08T01:13:43.202Z,98002.49
2018-05-08T01:16:10.677Z,98001.20
2018-05-08T01:18:38.105Z,98000.83
2018-05-08T01:21:05.603Z,98001.25
2018-05-08T01:23:33.137Z,98002.53
2018-05-08T01:26:00.636Z,97997.28
2018-05-08T01:28:28.064Z,97997.80
2018-05-08T01:30:55.556Z,97991.13
2018-05-08T01:33:22.981Z,97994.85
2018-05-08T01:35:50.430Z,97991.09
2018-05-08T01:38:17.921Z,97990.23
2018-05-08T01:40:45.341Z,97987.59
2018-05-08T01:43:12.800Z,97986.14
2018-05-08T01:45:40.226Z,97986.74
2018-05-08T01:48:07.737Z,97978.97
2018-05-08T01:50:35.175Z,97976.92
2018-05-08T01:53:02.611Z,97977.01
2018-05-08T01:55:30.065Z,97973.25
2018-05-08T01:57:57.490Z,97970.61
2018-05-08T02:00:24.934Z,97970.18
2018-05-08T02:02:52.350Z,97972.78
2018-05-08T02:05:19.829Z,97969.27
2018-05-08T02:07:47.257Z,97979.78
2018-05-08T02:10:14.816Z,97981.39
2018-05-08T02:12:42.281Z,97970.39
2018-05-08T02:15:09.717Z,97972.39
2018-05-08T02:17:37.153Z,97977.22
2018-05-08T02:20:04.579Z,97975.08
2018-05-08T02:22:32.065Z,97984.80
2018-05-08T02:24:59.498Z,97976.11
2018-05-08T02:27:26.934Z,97981.60
2018-05-08T02:29:54.411Z,97976.11
2018-05-08T02:32:21.862Z,97976.32
2018-05-08T02:34:49.414Z,97974.02
2018-05-08T02:37:16.986Z,97972.02
2018-05-08T02:39:44.433Z,97970.44
2018-05-08T02:42:12.380Z,97966.67
2018-05-08T02:44:39.813Z,97967.37
2018-05-08T02:47:07.322Z,97969.16
2018-05-08T02:49:34.761Z,97969.55
2018-05-08T02:52:02.190Z,97966.98
2018-05-08T02:54:29.704Z,97965.70
2018-05-08T02:56:57.131Z,97965.48
2018-05-08T02:59:24.556Z,97961.81
2018-05-08T03:01:52.074Z,97961.20
2018-05-08T03:04:19.528Z,97957.88
2018-05-08T03:06:46.971Z,97948.14
2018-05-08T03:09:14.413Z,97955.12
2018-05-08T03:11:41.853Z,97959.29
2018-05-08T03:14:09.277Z,97953.01
2018-05-08T03:16:36.771Z,97955.95
2018-05-08T03:19:04.201Z,97958.48
2018-05-08T03:21:31.625Z,97962.77
2018-05-08T03:23:59.062Z,97959.34
2018-05-08T03:26:26.621Z,97959.42
2018-05-08T03:28:54.055Z,97958.65
2018-05-08T03:31:21.524Z,97959.13
2018-05-08T03:33:49.002Z,97961.50
2018-05-08T03:36:16.434Z,97960.83
2018-05-08T03:38:43.912Z,97963.02
2018-05-08T03:41:11.344Z,97960.31
2018-05-08T03:43:38.798Z,97962.22
2018-05-08T03:46:06.293Z,97963.27
2018-05-08T03:48:33.724Z,97961.81
2018-05-08T03:51:01.257Z,97959.55
2018-05-08T03:53:28.681Z,97964.03
2018-05-08T03:55:56.119Z,97967.27
2018-05-08T03:58:23.641Z,97964.92
2018-05-08T04:01:02.809Z,97965.58
2018-05-08T04:03:43.060Z,97962.42
2018-05-08T04:09:15.365Z,97959.56
2018-05-08T04:11:42.802Z,97957.27
2018-05-08T04:14:10.245Z,97951.03
2018-05-08T04:16:37.723Z,97951.37
2018-05-08T04:19:05.170Z,97952.98
2018-05-08T04:21:32.720Z,97955.61
2018-05-08T04:24:00.197Z,97957.14
2018-05-08T04:26:27.621Z,97949.59
2018-05-08T04:28:55.053Z,97950.52
2018-05-08T04:31:22.572Z,97955.00
2018-05-08T04:33:50.029Z,97957.02
2018-05-08T04:36:17.502Z,97963.05
2018-05-08T04:38:45.381Z,97964.73
2018-05-08T04:41:12.818Z,97955.59
2018-05-08T04:43:40.261Z,97954.28
2018-05-08T04:46:07.707Z,97952.36
2018-05-08T04:48:35.174Z,97954.39
2018-05-08T04:51:02.650Z,97951.77
2018-05-08T04:53:30.135Z,97957.86
2018-05-08T04:55:57.628Z,97958.06
2018-05-08T04:58:25.037Z,97959.45
2018-05-08T05:00:52.486Z,97957.65
2018-05-08T05:03:19.971Z,97963.91
2018-05-08T05:05:47.487Z,97955.91
2018-05-08T05:08:14.946Z,97954.08
2018-05-08T05:10:42.626Z,97954.16
2018-05-08T05:13:10.064Z,97948.41
2018-05-08T05:15:37.629Z,97945.66
2018-05-08T05:18:05.161Z,97937.90
2018-05-08T05:20:32.616Z,97937.03
2018-05-08T05:23:00.062Z,97934.78
2018-05-08T05:25:27.539Z,97939.52
2018-05-08T05:27:54.991Z,97927.66
2018-05-08T05:30:22.426Z,97930.59
2018-05-08T05:32:49.933Z,97924.56
2018-05-08T05:35:17.369Z,97934.67
2018-05-08T05:37:44.833Z,97920.18
2018-05-08T05:40:12.278Z,97927.25
2018-05-08T05:42:39.746Z,97917.90
2018-05-08T05:45:07.176Z,97919.16
2018-05-08T05:47:34.672Z,97917.32
2018-05-08T05:50:02.111Z,97901.61
2018-05-08T05:52:29.561Z,97905.84
2018-05-08T05:54:56.999Z,97906.50
2018-05-08T05:57:24.500Z,97907.87
2018-05-08T05:59:51.938Z,97903.18
2018-05-08T06:02:19.536Z,97899.81
2018-05-08T06:04:46.998Z,97903.70
2018-05-08T06:07:14.444Z,97897.85
2018-05-08T06:09:42.022Z,97897.06
2018-05-08T06:12:09.454Z,97892.77
2018-05-08T06:14:36.906Z,97887.42
2018-05-08T06:17:04.363Z,97890.79
2018-05-08T06:19:31.912Z,97889.94
2018-05-08T06:21:59.361Z,97892.66
2018-05-08T06:24:26.825Z,97898.59
2018-05-08T06:26:54.270Z,97897.77
2018-05-08T06:29:21.738Z,97893.66
2018-05-08T06:31:49.199Z,97890.34
2018-05-08T06:34:16.670Z,97889.30
2018-05-08T06:36:44.223Z,97887.52
2018-05-08T06:39:11.667Z,97886.53
2018-05-08T06:41:39.102Z,97888.72
2018-05-08T06:44:06.569Z,97890.41
2018-05-08T06:46:34.064Z,97887.63
2018-05-08T06:49:01.517Z,97893.38
2018-05-08T06:51:28.952Z,97889.94
2018-05-08T06:53:56.396Z,97890.48
2018-05-08T06:56:23.886Z,97892.41
2018-05-08T06:58:51.461Z,97893.88
2018-05-08T07:01:18.897Z,97898.22
2018-05-08T07:03:46.317Z,97897.41
2018-05-08T07:06:13.750Z,97887.25
2018-05-08T07:08:41.192Z,97883.66
2018-05-08T07:11:08.628Z,97880.08
2018-05-08T07:13:36.074Z,97873.66
2018-05-08T07:16:03.627Z,97874.63
2018-05-08T07:18:30.941Z,97874.20
2018-05-08T07:20:58.373Z,97872.14
2018-05-08T07:23:25.896Z,97869.29
2018-05-08T07:25:53.329Z,97864.55
2018-05-08T07:28:20.922Z,97861.55
2018-05-08T07:30:48.417Z,97866.08
2018-05-08T07:33:15.849Z,97863.16
2018-05-08T07:35:43.332Z,97864.80
2018-05-08T07:38:10.796Z,97863.09
2018-05-08T07:40:38.213Z,97866.63
2018-05-08T07:43:06.540Z,97855.56
2018-05-08T07:45:34.024Z,97862.14
2018-05-08T07:48:01.417Z,97863.47
2018-05-08T07:50:28.875Z,97858.92
2018-05-08T07:52:56.306Z,97859.59
2018-05-08T07:55:23.779Z,97852.99
2018-05-08T07:57:51.227Z,97851.81
2018-05-08T08:00:18.655Z,97851.45
2018-05-08T08:02:46.144Z,97851.70
2018-05-08T08:05:13.659Z,97844.08
2018-05-08T08:07:41.088Z,97848.14
2018-05-08T08:10:08.526Z,97841.64
2018-05-08T08:12:35.986Z,97849.69
2018-05-08T08:15:03.418Z,97854.04
2018-05-08T08:17:30.862Z,97847.29
2018-05-08T08:19:58.303Z,97844.41
2018-05-08T08:22:25.756Z,97852.27
2018-05-08T08:24:53.224Z,97843.28
2018-05-08T08:27:20.700Z,97849.33
2018-05-08T08:29:48.199Z,97842.94
2018-05-08T08:32:15.649Z,97849.77
2018-05-08T08:34:43.103Z,97844.92
2018-05-08T08:37:10.663Z,97835.43
2018-05-08T08:39:38.162Z,97837.46
2018-05-08T08:42:05.599Z,97830.71
2018-05-08T08:44:33.054Z,97830.59
2018-05-08T08:47:00.514Z,97834.38
2018-05-08T08:49:27.999Z,97831.27
2018-05-08T08:51:55.424Z,97829.36
2018-05-08T08:54:22.882Z,97820.59
2018-05-08T08:56:50.346Z,97825.06
2018-05-08T08:59:17.846Z,97821.18
2018-05-08T09:01:45.261Z,97826.08
2018-05-08T09:04:12.695Z,97818.61
2018-05-08T09:06:40.132Z,97825.98
2018-05-08T09:09:07.593Z,97821.47
2018-05-08T09:11:35.019Z,97812.84
2018-05-08T09:14:02.487Z,97805.91
2018-05-08T09:16:29.950Z,97813.72
2018-05-08T09:18:57.412Z,97807.48
2018-05-08T09:21:24.839Z,97797.75
2018-05-08T09:23:52.287Z,97805.75
2018-05-08T09:26:19.737Z,97799.96
2018-05-08T09:28:47.245Z,97802.36
2018-05-08T09:31:14.676Z,97790.59
2018-05-08T09:33:42.115Z,97788.02
2018-05-08T09:36:09.621Z,97786.62
2018-05-08T09:38:37.092Z,97776.02
2018-05-08T09:41:04.590Z,97780.63
2018-05-08T09:43:32.077Z,97771.63
2018-05-08T09:45:59.524Z,97771.66
2018-05-08T09:48:26.984Z,97770.09
2018-05-08T09:50:54.544Z,97766.06
2018-05-08T09:53:21.997Z,97769.30
2018-05-08T09:55:49.482Z,97764.95
2018-05-08T09:58:16.913Z,97754.47
2018-05-08T10:00:44.429Z,97762.92
2018-05-08T10:03:11.950Z,97751.63
2018-05-08T10:05:39.496Z,97753.08
2018-05-08T10:08:06.927Z,97748.59
2018-05-08T10:10:34.366Z,97739.05
2018-05-08T10:13:01.799Z,97741.39
2018-05-08T10:15:29.230Z,97736.93
2018-05-08T10:17:56.691Z,97736.47
2018-05-08T10:20:24.177Z,97730.21
2018-05-08T10:22:51.605Z,97720.86
2018-05-08T10:25:19.070Z,97721.00
2018-05-08T10:27:46.505Z,97728.55
2018-05-08T10:30:13.949Z,97726.27
2018-05-08T10:32:41.502Z,97723.31
2018-05-08T10:35:09.089Z,97721.47
2018-05-08T10:37:36.624Z,97715.58
2018-05-08T10:40:04.057Z,97714.30
2018-05-08T10:42:31.492Z,97716.03
2018-05-08T10:44:58.945Z,97712.78
2018-05-08T10:47:26.390Z,97713.98
2018-05-08T10:49:53.814Z,97703.30
2018-05-08T10:52:21.317Z,97695.97
2018-05-08T10:54:48.858Z,97690.70
2018-05-08T10:57:16.310Z,97692.50
2018-05-08T10:59:43.741Z,97676.26
2018-05-08T11:02:11.225Z,97681.44
2018-05-08T11:04:38.656Z,97674.94
2018-05-08T11:07:06.292Z,97670.65
2018-05-08T11:09:33.741Z,97668.64
2018-05-08T11:12:01.228Z,97672.89
2018-05-08T11:14:28.720Z,97663.03
2018-05-08T11:16:56.234Z,97657.53
2018-05-08T11:19:23.729Z,97652.80
2018-05-08T11:21:51.212Z,97647.80
2018-05-08T11:24:18.737Z,97646.87
2018-05-08T11:26:46.516Z,97646.95
2018-05-08T11:29:14.314Z,97645.89
2018-05-08T11:31:41.807Z,97639.30
2018-05-08T11:34:09.297Z,97633.64
2018-05-08T11:36:36.762Z,97630.22
2018-05-08T11:39:04.221Z,97626.97
2018-05-08T11:41:31.719Z,97619.59
2018-05-08T11:43:59.146Z,97620.83
2018-05-08T11:46:26.577Z,97618.79
2018-05-08T11:48:54.035Z,97612.95
2018-05-08T11:51:21.580Z,97611.55
2018-05-08T11:53:49.048Z,97608.41
2018-05-08T11:56:16.483Z,97614.28
2018-05-08T11:58:43.968Z,97600.31
2018-05-08T12:01:11.426Z,97609.39
2018-05-08T12:03:38.889Z,97601.94
2018-05-08T12:06:06.350Z,97596.41
2018-05-08T12:08:33.785Z,97595.80
2018-05-08T12:11:01.253Z,97594.73
2018-05-08T12:13:28.701Z,97588.33
2018-05-08T12:15:56.162Z,97589.03
2018-05-08T12:18:23.805Z,97581.22
2018-05-08T12:20:51.238Z,97574.78
2018-05-08T12:23:18.738Z,97580.27
2018-05-08T12:25:46.291Z,97574.39
2018-05-08T12:28:13.713Z,97587.44
2018-05-08T12:30:41.168Z,97591.34
2018-05-08T12:33:08.618Z,97585.20
2018-05-08T12:35:36.042Z,97576.88
2018-05-08T12:38:03.461Z,97576.38
2018-05-08T12:40:31.066Z,97573.17
2018-05-08T12:42:58.482Z,97575.98
2018-05-08T12:45:25.979Z,97567.52
2018-05-08T12:47:53.429Z,97566.98
2018-05-08T12:50:20.881Z,97568.72
2018-05-08T12:52:48.399Z,97566.38
2018-05-08T12:55:15.980Z,97562.09
2018-05-08T12:57:43.601Z,97549.22
2018-05-08T13:00:11.117Z,97546.13
2018-05-08T13:02:38.635Z,97538.35
2018-05-08T13:05:06.059Z,97543.00
2018-05-08T13:07:33.719Z,97539.34
2018-05-08T13:10:01.438Z,97535.58
2018-05-08T13:12:28.875Z,97534.97
2018-05-08T13:14:56.391Z,97535.09
2018-05-08T13:17:23.936Z,97530.79
2018-05-08T13:19:51.371Z,97531.81
2018-05-08T13:22:18.902Z,97528.98
2018-05-08T13:24:46.334Z,97526.41
2018-05-08T13:27:13.854Z,97534.36
2018-05-08T13:29:41.269Z,97522.97
2018-05-08T13:32:08.719Z,97515.50
2018-05-08T13:34:36.227Z,97511.27
2018-05-08T13:37:03.658Z,97515.20
2018-05-08T13:39:31.113Z,97512.29
2018-05-08T13:41:58.689Z,97505.50
2018-05-08T13:44:26.158Z,97499.15
2018-05-08T13:46:53.598Z,97502.12
2018-05-08T13:49:21.057Z,97505.14
2018-05-08T13:51:48.479Z,97498.88
2018-05-08T13:54:15.986Z,97495.69
2018-05-08T13:56:43.417Z,97493.36
2018-05-08T13:59:10.849Z,97493.19
2018-05-08T14:01:38.371Z,97488.45
2018-05-08T14:04:05.814Z,97489.50
2018-05-08T14:06:35.390Z,97488.64
2018-05-08T14:09:02.749Z,97478.92
2018-05-08T14:11:30.230Z,97477.37
2018-05-08T14:13:57.653Z,97482.80
2018-05-08T14:16:25.089Z,97480.84
2018-05-08T14:18:52.526Z,97474.08
2018-05-08T14:21:19.956Z,97474.53
2018-05-08T14:23:47.426Z,97466.72
2018-05-08T14:26:14.994Z,97464.33
2018-05-08T14:28:42.306Z,97461.05
2018-05-08T14:31:09.734Z,97469.06
2018-05-08T14:33:37.209Z,97460.25
2018-05-08T14:36:04.638Z,97456.03
2018-05-08T14:38:32.164Z,97456.69
2018-05-08T14:40:59.530Z,97450.47
2018-05-08T14:43:26.968Z,97451.44
2018-05-08T14:45:54.407Z,97437.48
2018-05-08T14:48:22.000Z,97437.91
2018-05-08T14:50:49.446Z,97439.55
2018-05-08T14:53:16.898Z,97437.28
2018-05-08T14:55:44.334Z,97435.81
2018-05-08T14:58:11.822Z,97432.72
2018-05-08T15:00:39.244Z,97438.45
2018-05-08T15:03:06.686Z,97441.16
2018-05-08T15:05:34.181Z,97429.97
2018-05-08T15:08:01.617Z,97433.22
2018-05-08T15:10:29.070Z,97422.44
2018-05-08T15:12:56.681Z,97419.25
2018-05-08T15:15:24.198Z,97414.65
2018-05-08T15:17:51.649Z,97420.86
2018-05-08T15:20:19.139Z,97423.30
2018-05-08T15:22:46.601Z,97416.89
2018-05-08T15:25:14.237Z,97420.42
2018-05-08T15:27:41.667Z,97411.37
2018-05-08T15:30:09.157Z,97411.08
2018-05-08T15:32:36.722Z,97412.63
2018-05-08T15:35:04.158Z,97410.75
2018-05-08T15:37:31.592Z,97411.50
2018-05-08T15:39:59.012Z,97410.07
2018-05-08T15:42:26.446Z,97406.44
2018-05-08T15:44:53.905Z,97408.44
2018-05-08T15:47:21.382Z,97404.69
2018-05-08T15:49:49.674Z,97406.19
2018-05-08T15:52:17.169Z,97401.58
2018-05-08T15:54:44.638Z,97404.30
2018-05-08T15:57:12.093Z,97404.16
2018-05-08T15:59:39.527Z,97393.03
2018-05-08T16:02:07.104Z,97387.20
2018-05-08T16:04:34.570Z,97387.17
2018-05-08T16:07:02.049Z,97380.58
2018-05-08T16:09:29.472Z,97383.39
2018-05-08T16:11:56.892Z,97379.34
2018-05-08T16:14:24.342Z,97377.19
2018-05-08T16:16:51.905Z,97376.47
2018-05-08T16:19:19.335Z,97376.24
2018-05-08T16:21:46.831Z,97378.72
2018-05-08T16:24:14.281Z,97375.53
2018-05-08T16:26:41.721Z,97374.23
2018-05-08T16:29:09.182Z,97376.34
2018-05-08T16:31:36.644Z,97370.97
2018-05-08T16:34:04.105Z,97374.52
2018-05-08T16:36:31.521Z,97373.84
2018-05-08T16:38:58.945Z,97371.00
2018-05-08T16:41:26.450Z,97371.24
2018-05-08T16:43:53.914Z,97367.57
2018-05-08T16:46:21.376Z,97372.28
2018-05-08T16:48:48.815Z,97375.73
2018-05-08T16:51:16.306Z,97368.53
2018-05-08T16:53:43.736Z,97373.11
2018-05-08T16:56:11.819Z,97372.46
2018-05-08T16:58:39.246Z,97371.66
2018-05-08T17:01:06.683Z,97367.55
2018-05-08T17:03:34.103Z,97371.47
2018-05-08T17:06:01.567Z,97366.03
2018-05-08T17:08:28.995Z,97363.09
2018-05-08T17:10:56.443Z,97361.59
2018-05-08T17:13:24.007Z,97362.19
2018-05-08T17:15:51.426Z,97368.48
2018-05-08T17:18:21.148Z,97367.97
2018-05-08T17:20:48.955Z,97370.10
2018-05-08T17:23:16.386Z,97363.41
2018-05-08T17:25:43.826Z,97360.59
2018-05-08T17:28:11.269Z,97363.75
2018-05-08T17:30:38.733Z,97366.53
2018-05-08T17:33:06.172Z,97366.85
2018-05-08T17:35:33.597Z,97369.13
2018-05-08T17:38:01.062Z,97376.70
2018-05-08T17:40:28.502Z,97377.56
2018-05-08T17:42:55.957Z,97380.11
2018-05-08T17:45:23.402Z,97377.24
2018-05-08T17:47:50.861Z,97377.11
2018-05-08T17:50:18.331Z,97381.63
2018-05-08T17:52:45.768Z,97380.88
2018-05-08T17:55:13.210Z,97382.69
2018-05-08T17:57:40.654Z,97393.08
2018-05-08T18:00:08.134Z,97393.57
2018-05-08T18:02:35.573Z,97394.01
2018-05-08T18:05:03.062Z,97397.80
2018-05-08T18:07:30.508Z,97394.77
2018-05-08T18:09:57.999Z,97393.73
2018-05-08T18:12:25.538Z,97393.55
2018-05-08T18:14:53.162Z,97400.11
2018-05-08T18:17:20.630Z,97399.59
2018-05-08T18:19:48.075Z,97392.16
2018-05-08T18:22:15.563Z,97395.70
2018-05-08T18:24:43.002Z,97397.98
2018-05-08T18:27:10.434Z,97396.53
2018-05-08T18:29:37.913Z,97399.24
2018-05-08T18:32:05.498Z,97398.41
2018-05-08T18:34:32.933Z,97399.98
2018-05-08T18:37:00.622Z,97396.55
2018-05-08T18:39:28.088Z,97398.20
2018-05-08T18:41:55.701Z,97403.36
2018-05-08T18:44:23.161Z,97405.58
2018-05-08T18:46:50.649Z,97401.92
2018-05-08T18:49:18.388Z,97402.43
2018-05-08T18:51:45.818Z,97403.95
2018-05-08T18:54:13.251Z,97412.92
2018-05-08T18:56:40.687Z,97414.49
2018-05-08T18:59:08.121Z,97414.81
2018-05-08T19:01:35.596Z,97419.64
2018-05-08T19:04:03.070Z,97419.55
2018-05-08T19:06:30.526Z,97413.75
2018-05-08T19:08:58.659Z,97418.79
2018-05-08T19:11:31.734Z,97417.89
2018-05-08T19:13:59.173Z,97424.17
2018-05-08T19:16:26.618Z,97422.10
2018-05-08T19:18:59.541Z,97424.27
2018-05-08T19:21:26.979Z,97418.11
2018-05-08T19:24:00.212Z,97419.88
2018-05-08T19:26:27.800Z,97418.85
2018-05-08T19:29:00.840Z,97416.82
2018-05-08T19:31:28.256Z,97418.11
2018-05-08T19:33:55.686Z,97418.82
2018-05-08T19:36:28.892Z,97425.53
2018-05-08T19:38:56.504Z,97426.08
2018-05-08T19:41:24.007Z,97425.95
2018-05-08T19:43:51.560Z,97417.38
2018-05-08T19:46:19.017Z,97421.69
2018-05-08T19:48:46.469Z,97421.72
2018-05-08T19:51:14.034Z,97433.58
2018-05-08T19:53:41.709Z,97430.34
2018-05-08T19:56:09.202Z,97432.22
2018-05-08T19:58:36.775Z,97437.36
2018-05-08T20:01:04.238Z,97435.98
2018-05-08T20:03:31.681Z,97441.38
2018-05-08T20:05:59.117Z,97440.87
2018-05-08T20:08:26.649Z,97442.17
2018-05-08T20:10:54.131Z,97445.65
2018-05-08T20:13:21.553Z,97440.13
2018-05-08T20:15:48.994Z,97441.41
2018-05-08T20:18:16.426Z,97449.02
2018-05-08T20:20:43.853Z,97443.95
2018-05-08T20:23:11.277Z,97442.70
2018-05-08T20:25:38.750Z,97440.44
2018-05-08T20:28:06.194Z,97450.31
2018-05-08T20:30:33.712Z,97449.14
2018-05-08T20:33:01.108Z,97444.68
2018-05-08T20:35:28.551Z,97443.56
2018-05-08T20:37:56.005Z,97444.22
2018-05-08T20:40:23.440Z,97452.64
2018-05-08T20:42:50.928Z,97445.35
2018-05-08T20:45:18.410Z,97448.84
2018-05-08T20:47:45.862Z,97447.91
2018-05-08T20:50:13.306Z,97443.12
2018-05-08T20:52:40.736Z,97443.80
2018-05-08T20:55:08.191Z,97441.75
2018-05-08T20:57:35.635Z,97438.13
2018-05-08T21:00:03.144Z,97441.38
2018-05-08T21:02:30.615Z,97439.00
2018-05-08T21:04:58.122Z,97443.65
2018-05-08T21:07:25.624Z,97439.23
2018-05-08T21:09:53.158Z,97441.24
2018-05-08T21:12:20.776Z,97442.02
2018-05-08T21:14:48.230Z,97441.63
2018-05-08T21:17:16.028Z,97443.60
2018-05-08T21:19:43.469Z,97443.97
2018-05-08T21:22:10.924Z,97439.82
2018-05-08T21:24:38.456Z,97439.59
2018-05-08T21:27:05.923Z,97442.20
2018-05-08T21:29:38.997Z,97441.34
2018-05-08T21:32:06.554Z,97440.20
2018-05-08T21:34:33.991Z,97444.14
2018-05-08T21:37:01.466Z,97440.59
2018-05-08T21:39:28.934Z,97440.74
2018-05-08T21:41:56.484Z,97439.62
2018-05-08T21:44:23.944Z,97441.38
2018-05-08T21:46:51.395Z,97448.81
2018-05-08T21:49:18.832Z,97442.23
2018-05-08T21:51:46.390Z,97444.34
2018-05-08T21:54:13.832Z,97445.00
2018-05-08T21:56:41.273Z,97445.40
2018-05-08T21:59:08.725Z,97446.59
2018-05-08T22:01:36.212Z,97446.75
2018-05-08T22:04:03.758Z,97448.44
2018-05-08T22:06:31.134Z,97448.63
2018-05-08T22:08:58.958Z,97448.69
2018-05-08T22:11:26.419Z,97453.56
2018-05-08T22:13:54.149Z,97452.38
2018-05-08T22:16:21.679Z,97466.53
2018-05-08T22:18:49.128Z,97482.81
2018-05-08T22:21:16.554Z,97474.62
2018-05-08T22:23:43.985Z,97459.86
2018-05-08T22:26:11.472Z,97452.98
2018-05-08T22:28:38.924Z,97467.89
2018-05-08T22:31:06.427Z,97464.89
2018-05-08T22:33:33.886Z,97470.63
2018-05-08T22:36:01.321Z,97466.52
2018-05-08T22:38:28.770Z,97469.05
2018-05-08T22:40:56.202Z,97473.22
2018-05-08T22:43:23.693Z,97472.05
2018-05-08T22:45:51.132Z,97471.28
2018-05-08T22:48:18.571Z,97471.52
2018-05-08T22:50:46.068Z,97473.75
2018-05-08T22:53:13.526Z,97474.23
2018-05-08T22:55:40.949Z,97473.23
2018-05-08T22:58:08.386Z,97471.34
2018-05-08T23:00:35.821Z,97467.69
2018-05-08T23:03:03.249Z,97465.31
2018-05-08T23:05:30.925Z,97461.43
2018-05-08T23:07:58.397Z,97462.36
2018-05-08T23:10:26.000Z,97468.87
2018-05-08T23:12:53.431Z,97466.81
2018-05-08T23:15:20.970Z,97466.03
2018-05-08T23:17:48.406Z,97460.34
2018-05-08T23:20:15.850Z,97460.50
2018-05-08T23:22:43.287Z,97464.55
2018-05-08T23:25:10.791Z,97464.22
2018-05-08T23:27:38.239Z,97459.03
2018-05-08T23:30:05.682Z,97457.11
2018-05-08T23:32:33.113Z,97453.05
2018-05-08T23:35:00.547Z,97456.86
2018-05-08T23:37:27.979Z,97457.23
2018-05-08T23:39:55.407Z,97460.86
2018-05-08T23:42:22.861Z,97457.85
2018-05-08T23:44:50.276Z,97461.77
2018-05-08T23:47:17.758Z,97460.56
2018-05-08T23:49:45.199Z,97461.67
2018-05-08T23:52:12.640Z,97461.88
2018-05-08T23:54:40.057Z,97462.67
2018-05-08T23:57:07.522Z,97457.55
2018-05-08T23:59:35.048Z,97460.46
